sensor_id;sensor_type;location;lat;lon;timestamp;P1;durP1;ratioP1;P2;durP2;ratioP2
46110;SDS011;31849;55.992;37.252;2023-05-07T00:04:21;5.93;;;4.00;;
46110;SDS011;31849;55.992;37.252;2023-05-07T00:09:24;5.32;;;3.95;;
46110;SDS011;31849;55.992;37.252;2023-05-07T00:14:28;6.47;;;3.70;;
46110;SDS011;31849;55.992;37.252;2023-05-07T00:19:33;7.05;;;4.00;;
46110;SDS011;31849;55.992;37.252;2023-05-07T00:29:40;4.95;;;3.20;;
46110;SDS011;31849;55.992;37.252;2023-05-07T00:34:44;8.45;;;3.83;;
46110;SDS011;31849;55.992;37.252;2023-05-07T00:44:51;6.15;;;3.42;;
46110;SDS011;31849;55.992;37.252;2023-05-07T00:49:56;7.32;;;3.92;;
46110;SDS011;31849;55.992;37.252;2023-05-07T00:55:00;7.22;;;3.97;;
46110;SDS011;31849;55.992;37.252;2023-05-07T01:00:09;7.18;;;3.38;;
46110;SDS011;31849;55.992;37.252;2023-05-07T01:05:16;6.95;;;3.88;;
46110;SDS011;31849;55.992;37.252;2023-05-07T01:10:22;6.18;;;3.38;;
46110;SDS011;31849;55.992;37.252;2023-05-07T01:15:26;6.55;;;3.45;;
46110;SDS011;31849;55.992;37.252;2023-05-07T01:20:31;5.38;;;3.50;;
46110;SDS011;31849;55.992;37.252;2023-05-07T01:25:37;5.90;;;3.75;;
46110;SDS011;31849;55.992;37.252;2023-05-07T01:35:45;6.25;;;3.80;;
46110;SDS011;31849;55.992;37.252;2023-05-07T01:40:51;6.63;;;4.05;;
46110;SDS011;31849;55.992;37.252;2023-05-07T01:45:56;8.25;;;3.92;;
46110;SDS011;31849;55.992;37.252;2023-05-07T01:51:01;5.70;;;3.60;;
46110;SDS011;31849;55.992;37.252;2023-05-07T01:56:07;6.83;;;3.80;;
46110;SDS011;31849;55.992;37.252;2023-05-07T02:01:10;5.65;;;3.70;;
46110;SDS011;31849;55.992;37.252;2023-05-07T02:06:14;6.43;;;3.65;;
46110;SDS011;31849;55.992;37.252;2023-05-07T02:11:19;6.90;;;4.10;;
46110;SDS011;31849;55.992;37.252;2023-05-07T02:21:26;5.75;;;3.50;;
46110;SDS011;31849;55.992;37.252;2023-05-07T02:26:33;7.07;;;4.20;;
46110;SDS011;31849;55.992;37.252;2023-05-07T02:31:36;5.60;;;3.83;;
46110;SDS011;31849;55.992;37.252;2023-05-07T02:36:40;7.47;;;3.90;;
46110;SDS011;31849;55.992;37.252;2023-05-07T02:41:45;6.72;;;3.75;;
46110;SDS011;31849;55.992;37.252;2023-05-07T02:51:52;5.28;;;3.50;;
46110;SDS011;31849;55.992;37.252;2023-05-07T02:56:56;8.02;;;3.83;;
46110;SDS011;31849;55.992;37.252;2023-05-07T03:02:02;5.78;;;3.67;;
46110;SDS011;31849;55.992;37.252;2023-05-07T03:07:05;5.93;;;3.28;;
46110;SDS011;31849;55.992;37.252;2023-05-07T03:12:10;5.32;;;3.30;;
46110;SDS011;31849;55.992;37.252;2023-05-07T03:17:14;8.27;;;3.67;;
46110;SDS011;31849;55.992;37.252;2023-05-07T03:22:18;5.78;;;3.53;;
46110;SDS011;31849;55.992;37.252;2023-05-07T03:27:23;5.53;;;3.40;;
46110;SDS011;31849;55.992;37.252;2023-05-07T03:32:27;5.40;;;3.00;;
46110;SDS011;31849;55.992;37.252;2023-05-07T03:37:30;6.10;;;3.03;;
46110;SDS011;31849;55.992;37.252;2023-05-07T03:42:35;5.63;;;2.85;;
46110;SDS011;31849;55.992;37.252;2023-05-07T03:52:42;4.65;;;3.15;;
46110;SDS011;31849;55.992;37.252;2023-05-07T03:57:47;3.97;;;2.92;;
46110;SDS011;31849;55.992;37.252;2023-05-07T04:02:51;4.68;;;2.92;;
46110;SDS011;31849;55.992;37.252;2023-05-07T04:07:55;5.05;;;3.05;;
46110;SDS011;31849;55.992;37.252;2023-05-07T04:12:59;6.35;;;3.30;;
46110;SDS011;31849;55.992;37.252;2023-05-07T04:18:03;5.22;;;2.97;;
46110;SDS011;31849;55.992;37.252;2023-05-07T04:23:07;3.95;;;2.72;;
46110;SDS011;31849;55.992;37.252;2023-05-07T04:28:12;5.05;;;2.60;;
46110;SDS011;31849;55.992;37.252;2023-05-07T04:33:15;6.18;;;3.05;;
46110;SDS011;31849;55.992;37.252;2023-05-07T04:38:19;5.20;;;2.80;;
46110;SDS011;31849;55.992;37.252;2023-05-07T04:43:26;4.82;;;3.25;;
46110;SDS011;31849;55.992;37.252;2023-05-07T04:48:30;4.43;;;2.92;;
46110;SDS011;31849;55.992;37.252;2023-05-07T04:53:33;4.57;;;2.50;;
46110;SDS011;31849;55.992;37.252;2023-05-07T04:58:38;3.80;;;2.90;;
46110;SDS011;31849;55.992;37.252;2023-05-07T05:03:42;6.38;;;2.88;;
46110;SDS011;31849;55.992;37.252;2023-05-07T05:08:45;4.87;;;2.83;;
46110;SDS011;31849;55.992;37.252;2023-05-07T05:13:50;4.27;;;2.73;;
46110;SDS011;31849;55.992;37.252;2023-05-07T05:18:54;3.67;;;2.50;;
46110;SDS011;31849;55.992;37.252;2023-05-07T05:23:57;3.63;;;2.40;;
46110;SDS011;31849;55.992;37.252;2023-05-07T05:29:03;3.50;;;2.38;;
46110;SDS011;31849;55.992;37.252;2023-05-07T05:34:06;4.28;;;2.70;;
46110;SDS011;31849;55.992;37.252;2023-05-07T05:39:10;4.22;;;2.53;;
46110;SDS011;31849;55.992;37.252;2023-05-07T05:44:15;4.95;;;2.50;;
46110;SDS011;31849;55.992;37.252;2023-05-07T05:49:19;3.28;;;2.25;;
46110;SDS011;31849;55.992;37.252;2023-05-07T05:54:22;7.25;;;1.90;;
46110;SDS011;31849;55.992;37.252;2023-05-07T05:59:27;2.65;;;1.60;;
46110;SDS011;31849;55.992;37.252;2023-05-07T06:04:31;2.95;;;1.77;;
46110;SDS011;31849;55.992;37.252;2023-05-07T06:09:35;3.55;;;1.52;;
46110;SDS011;31849;55.992;37.252;2023-05-07T06:14:40;2.38;;;1.60;;
46110;SDS011;31849;55.992;37.252;2023-05-07T06:19:45;2.08;;;1.40;;
46110;SDS011;31849;55.992;37.252;2023-05-07T06:24:49;2.40;;;1.60;;
46110;SDS011;31849;55.992;37.252;2023-05-07T06:29:54;2.35;;;1.50;;
46110;SDS011;31849;55.992;37.252;2023-05-07T06:34:57;2.13;;;1.23;;
46110;SDS011;31849;55.992;37.252;2023-05-07T06:40:01;3.00;;;1.50;;
46110;SDS011;31849;55.992;37.252;2023-05-07T06:45:07;2.92;;;1.60;;
46110;SDS011;31849;55.992;37.252;2023-05-07T06:50:12;2.92;;;1.33;;
46110;SDS011;31849;55.992;37.252;2023-05-07T06:55:17;3.05;;;1.30;;
46110;SDS011;31849;55.992;37.252;2023-05-07T07:00:22;2.90;;;1.73;;
46110;SDS011;31849;55.992;37.252;2023-05-07T07:05:26;1.92;;;1.10;;
46110;SDS011;31849;55.992;37.252;2023-05-07T07:10:30;3.55;;;1.35;;
46110;SDS011;31849;55.992;37.252;2023-05-07T07:15:35;2.93;;;1.40;;
46110;SDS011;31849;55.992;37.252;2023-05-07T07:20:38;4.18;;;1.73;;
46110;SDS011;31849;55.992;37.252;2023-05-07T07:25:42;3.10;;;1.60;;
46110;SDS011;31849;55.992;37.252;2023-05-07T07:30:47;1.80;;;1.30;;
46110;SDS011;31849;55.992;37.252;2023-05-07T07:35:51;1.95;;;1.40;;
46110;SDS011;31849;55.992;37.252;2023-05-07T07:40:54;2.20;;;1.33;;
46110;SDS011;31849;55.992;37.252;2023-05-07T07:45:59;3.37;;;1.60;;
46110;SDS011;31849;55.992;37.252;2023-05-07T07:51:03;4.40;;;1.40;;
46110;SDS011;31849;55.992;37.252;2023-05-07T07:56:07;3.10;;;1.50;;
46110;SDS011;31849;55.992;37.252;2023-05-07T08:01:12;2.05;;;1.20;;
46110;SDS011;31849;55.992;37.252;2023-05-07T08:06:15;2.40;;;1.30;;
46110;SDS011;31849;55.992;37.252;2023-05-07T08:11:19;3.10;;;1.30;;
46110;SDS011;31849;55.992;37.252;2023-05-07T08:16:24;2.58;;;1.20;;
46110;SDS011;31849;55.992;37.252;2023-05-07T08:21:28;2.63;;;1.25;;
46110;SDS011;31849;55.992;37.252;2023-05-07T08:26:35;2.15;;;1.20;;
46110;SDS011;31849;55.992;37.252;2023-05-07T08:31:42;4.20;;;1.30;;
46110;SDS011;31849;55.992;37.252;2023-05-07T08:36:45;3.88;;;1.10;;
46110;SDS011;31849;55.992;37.252;2023-05-07T08:41:50;2.97;;;1.23;;
46110;SDS011;31849;55.992;37.252;2023-05-07T08:46:59;2.15;;;1.20;;
46110;SDS011;31849;55.992;37.252;2023-05-07T08:52:04;2.53;;;1.20;;
46110;SDS011;31849;55.992;37.252;2023-05-07T08:57:10;2.97;;;1.42;;
46110;SDS011;31849;55.992;37.252;2023-05-07T09:02:15;3.08;;;1.33;;
46110;SDS011;31849;55.992;37.252;2023-05-07T09:07:20;2.33;;;1.30;;
46110;SDS011;31849;55.992;37.252;2023-05-07T09:12:24;4.18;;;1.10;;
46110;SDS011;31849;55.992;37.252;2023-05-07T09:17:29;1.70;;;1.00;;
46110;SDS011;31849;55.992;37.252;2023-05-07T09:22:32;1.80;;;1.25;;
46110;SDS011;31849;55.992;37.252;2023-05-07T09:27:36;2.10;;;1.25;;
46110;SDS011;31849;55.992;37.252;2023-05-07T09:32:41;4.43;;;1.40;;
46110;SDS011;31849;55.992;37.252;2023-05-07T09:37:45;2.40;;;1.40;;
46110;SDS011;31849;55.992;37.252;2023-05-07T09:42:49;2.28;;;1.20;;
46110;SDS011;31849;55.992;37.252;2023-05-07T09:47:55;3.17;;;1.33;;
46110;SDS011;31849;55.992;37.252;2023-05-07T09:52:59;2.60;;;1.55;;
46110;SDS011;31849;55.992;37.252;2023-05-07T09:58:04;3.53;;;1.20;;
46110;SDS011;31849;55.992;37.252;2023-05-07T10:03:11;1.80;;;1.02;;
46110;SDS011;31849;55.992;37.252;2023-05-07T10:08:16;2.53;;;1.20;;
46110;SDS011;31849;55.992;37.252;2023-05-07T10:13:21;2.95;;;1.25;;
46110;SDS011;31849;55.992;37.252;2023-05-07T10:18:26;2.60;;;1.50;;
46110;SDS011;31849;55.992;37.252;2023-05-07T10:23:31;3.20;;;1.20;;
46110;SDS011;31849;55.992;37.252;2023-05-07T10:33:42;2.87;;;1.20;;
46110;SDS011;31849;55.992;37.252;2023-05-07T10:38:49;1.90;;;1.30;;
46110;SDS011;31849;55.992;37.252;2023-05-07T10:43:53;5.90;;;1.50;;
46110;SDS011;31849;55.992;37.252;2023-05-07T10:54:25;3.08;;;1.23;;
46110;SDS011;31849;55.992;37.252;2023-05-07T10:59:35;3.53;;;1.50;;
46110;SDS011;31849;55.992;37.252;2023-05-07T11:10:28;2.10;;;1.20;;
46110;SDS011;31849;55.992;37.252;2023-05-07T11:15:50;3.50;;;1.70;;
46110;SDS011;31849;55.992;37.252;2023-05-07T11:20:56;2.20;;;1.40;;
46110;SDS011;31849;55.992;37.252;2023-05-07T11:26:02;2.75;;;1.45;;
46110;SDS011;31849;55.992;37.252;2023-05-07T11:31:07;5.45;;;1.50;;
46110;SDS011;31849;55.992;37.252;2023-05-07T11:36:12;2.57;;;1.53;;
46110;SDS011;31849;55.992;37.252;2023-05-07T11:41:16;2.83;;;1.35;;
46110;SDS011;31849;55.992;37.252;2023-05-07T11:46:22;3.55;;;1.55;;
46110;SDS011;31849;55.992;37.252;2023-05-07T11:51:27;3.40;;;1.50;;
46110;SDS011;31849;55.992;37.252;2023-05-07T11:56:33;3.22;;;1.50;;
46110;SDS011;31849;55.992;37.252;2023-05-07T12:01:38;1.90;;;1.13;;
46110;SDS011;31849;55.992;37.252;2023-05-07T12:06:43;2.15;;;1.10;;
46110;SDS011;31849;55.992;37.252;2023-05-07T12:16:49;3.17;;;1.58;;
46110;SDS011;31849;55.992;37.252;2023-05-07T12:21:55;2.53;;;1.30;;
46110;SDS011;31849;55.992;37.252;2023-05-07T12:26:59;2.53;;;1.40;;
46110;SDS011;31849;55.992;37.252;2023-05-07T12:32:03;2.47;;;1.30;;
46110;SDS011;31849;55.992;37.252;2023-05-07T12:37:09;2.30;;;1.30;;
46110;SDS011;31849;55.992;37.252;2023-05-07T12:42:14;4.75;;;1.50;;
46110;SDS011;31849;55.992;37.252;2023-05-07T12:47:19;2.20;;;1.23;;
46110;SDS011;31849;55.992;37.252;2023-05-07T12:52:25;3.08;;;1.48;;
46110;SDS011;31849;55.992;37.252;2023-05-07T12:57:28;2.85;;;1.23;;
46110;SDS011;31849;55.992;37.252;2023-05-07T13:02:32;5.55;;;1.70;;
46110;SDS011;31849;55.992;37.252;2023-05-07T13:07:39;4.43;;;1.67;;
46110;SDS011;31849;55.992;37.252;2023-05-07T13:12:43;4.45;;;1.85;;
46110;SDS011;31849;55.992;37.252;2023-05-07T13:17:47;2.20;;;1.40;;
46110;SDS011;31849;55.992;37.252;2023-05-07T13:22:52;3.78;;;1.50;;
46110;SDS011;31849;55.992;37.252;2023-05-07T13:33:11;3.00;;;1.52;;
46110;SDS011;31849;55.992;37.252;2023-05-07T13:38:16;3.05;;;1.65;;
46110;SDS011;31849;55.992;37.252;2023-05-07T13:43:19;4.63;;;1.73;;
46110;SDS011;31849;55.992;37.252;2023-05-07T13:48:23;5.15;;;1.85;;
46110;SDS011;31849;55.992;37.252;2023-05-07T13:53:28;3.92;;;1.63;;
46110;SDS011;31849;55.992;37.252;2023-05-07T14:03:34;3.28;;;1.58;;
46110;SDS011;31849;55.992;37.252;2023-05-07T14:08:41;2.75;;;1.52;;
46110;SDS011;31849;55.992;37.252;2023-05-07T14:18:47;3.78;;;1.45;;
46110;SDS011;31849;55.992;37.252;2023-05-07T14:23:52;2.97;;;1.30;;
46110;SDS011;31849;55.992;37.252;2023-05-07T14:28:58;2.40;;;1.38;;
46110;SDS011;31849;55.992;37.252;2023-05-07T14:34:01;2.72;;;1.50;;
46110;SDS011;31849;55.992;37.252;2023-05-07T14:39:07;2.45;;;1.38;;
46110;SDS011;31849;55.992;37.252;2023-05-07T14:49:14;2.38;;;1.40;;
46110;SDS011;31849;55.992;37.252;2023-05-07T14:54:20;3.40;;;1.42;;
46110;SDS011;31849;55.992;37.252;2023-05-07T15:04:27;3.60;;;1.80;;
46110;SDS011;31849;55.992;37.252;2023-05-07T15:09:32;4.78;;;2.00;;
46110;SDS011;31849;55.992;37.252;2023-05-07T15:14:35;4.70;;;1.75;;
46110;SDS011;31849;55.992;37.252;2023-05-07T15:19:39;3.38;;;1.80;;
46110;SDS011;31849;55.992;37.252;2023-05-07T15:24:44;5.45;;;1.70;;
46110;SDS011;31849;55.992;37.252;2023-05-07T15:34:51;6.20;;;2.05;;
46110;SDS011;31849;55.992;37.252;2023-05-07T15:39:56;3.03;;;1.67;;
46110;SDS011;31849;55.992;37.252;2023-05-07T15:50:04;12.32;;;2.08;;
46110;SDS011;31849;55.992;37.252;2023-05-07T15:55:10;3.97;;;2.08;;
46110;SDS011;31849;55.992;37.252;2023-05-07T16:00:14;4.68;;;1.80;;
46110;SDS011;31849;55.992;37.252;2023-05-07T16:05:19;3.35;;;1.50;;
46110;SDS011;31849;55.992;37.252;2023-05-07T16:10:24;5.28;;;1.73;;
46110;SDS011;31849;55.992;37.252;2023-05-07T16:15:28;3.22;;;1.70;;
46110;SDS011;31849;55.992;37.252;2023-05-07T16:20:32;5.15;;;2.00;;
46110;SDS011;31849;55.992;37.252;2023-05-07T16:25:37;3.33;;;1.67;;
46110;SDS011;31849;55.992;37.252;2023-05-07T16:30:41;3.42;;;1.80;;
46110;SDS011;31849;55.992;37.252;2023-05-07T16:35:49;7.23;;;1.50;;
46110;SDS011;31849;55.992;37.252;2023-05-07T16:40:55;2.70;;;1.58;;
46110;SDS011;31849;55.992;37.252;2023-05-07T16:45:58;5.80;;;1.60;;
46110;SDS011;31849;55.992;37.252;2023-05-07T16:51:02;6.97;;;2.30;;
46110;SDS011;31849;55.992;37.252;2023-05-07T16:56:07;6.32;;;1.85;;
46110;SDS011;31849;55.992;37.252;2023-05-07T17:01:11;2.90;;;1.60;;
46110;SDS011;31849;55.992;37.252;2023-05-07T17:06:15;6.32;;;1.70;;
46110;SDS011;31849;55.992;37.252;2023-05-07T17:11:20;4.43;;;1.50;;
46110;SDS011;31849;55.992;37.252;2023-05-07T17:21:27;4.43;;;1.95;;
46110;SDS011;31849;55.992;37.252;2023-05-07T17:26:32;4.20;;;1.80;;
46110;SDS011;31849;55.992;37.252;2023-05-07T17:31:37;4.10;;;1.73;;
46110;SDS011;31849;55.992;37.252;2023-05-07T17:36:40;4.13;;;1.98;;
46110;SDS011;31849;55.992;37.252;2023-05-07T17:41:45;4.82;;;1.95;;
46110;SDS011;31849;55.992;37.252;2023-05-07T17:51:52;5.35;;;2.05;;
46110;SDS011;31849;55.992;37.252;2023-05-07T17:56:58;11.57;;;4.07;;
46110;SDS011;31849;55.992;37.252;2023-05-07T18:07:04;11.13;;;3.97;;
46110;SDS011;31849;55.992;37.252;2023-05-07T18:12:09;15.93;;;3.80;;
46110;SDS011;31849;55.992;37.252;2023-05-07T18:17:13;14.57;;;4.93;;
46110;SDS011;31849;55.992;37.252;2023-05-07T18:22:17;28.70;;;9.90;;
46110;SDS011;31849;55.992;37.252;2023-05-07T18:27:21;17.05;;;6.85;;
46110;SDS011;31849;55.992;37.252;2023-05-07T18:37:28;12.23;;;5.03;;
46110;SDS011;31849;55.992;37.252;2023-05-07T18:42:34;9.77;;;4.05;;
46110;SDS011;31849;55.992;37.252;2023-05-07T18:47:37;13.40;;;4.00;;
46110;SDS011;31849;55.992;37.252;2023-05-07T18:52:41;12.73;;;4.22;;
46110;SDS011;31849;55.992;37.252;2023-05-07T18:57:46;12.98;;;5.20;;
46110;SDS011;31849;55.992;37.252;2023-05-07T19:07:53;16.42;;;5.45;;
46110;SDS011;31849;55.992;37.252;2023-05-07T19:12:58;15.45;;;5.60;;
46110;SDS011;31849;55.992;37.252;2023-05-07T19:23:05;15.07;;;4.93;;
46110;SDS011;31849;55.992;37.252;2023-05-07T19:28:11;15.48;;;4.63;;
46110;SDS011;31849;55.992;37.252;2023-05-07T19:38:18;16.05;;;5.43;;
46110;SDS011;31849;55.992;37.252;2023-05-07T19:43:23;15.13;;;5.97;;
46110;SDS011;31849;55.992;37.252;2023-05-07T19:48:27;13.80;;;5.25;;
46110;SDS011;31849;55.992;37.252;2023-05-07T19:53:30;11.18;;;5.32;;
46110;SDS011;31849;55.992;37.252;2023-05-07T19:58:35;14.05;;;5.50;;
46110;SDS011;31849;55.992;37.252;2023-05-07T20:03:40;12.90;;;4.90;;
46110;SDS011;31849;55.992;37.252;2023-05-07T20:08:44;31.07;;;6.87;;
46110;SDS011;31849;55.992;37.252;2023-05-07T20:13:49;17.67;;;6.20;;
46110;SDS011;31849;55.992;37.252;2023-05-07T20:23:55;15.93;;;5.82;;
46110;SDS011;31849;55.992;37.252;2023-05-07T20:29:00;16.35;;;5.65;;
46110;SDS011;31849;55.992;37.252;2023-05-07T20:34:05;18.77;;;6.22;;
46110;SDS011;31849;55.992;37.252;2023-05-07T20:39:09;15.30;;;6.57;;
46110;SDS011;31849;55.992;37.252;2023-05-07T20:44:18;16.95;;;5.88;;
46110;SDS011;31849;55.992;37.252;2023-05-07T20:54:24;19.27;;;7.25;;
46110;SDS011;31849;55.992;37.252;2023-05-07T20:59:30;14.52;;;6.55;;
46110;SDS011;31849;55.992;37.252;2023-05-07T21:04:35;14.80;;;6.82;;
46110;SDS011;31849;55.992;37.252;2023-05-07T21:09:39;20.27;;;8.18;;
46110;SDS011;31849;55.992;37.252;2023-05-07T21:14:44;22.47;;;7.03;;
46110;SDS011;31849;55.992;37.252;2023-05-07T21:24:51;16.02;;;6.68;;
46110;SDS011;31849;55.992;37.252;2023-05-07T21:29:56;20.23;;;7.45;;
46110;SDS011;31849;55.992;37.252;2023-05-07T21:35:07;18.73;;;7.32;;
46110;SDS011;31849;55.992;37.252;2023-05-07T21:40:11;18.88;;;7.22;;
46110;SDS011;31849;55.992;37.252;2023-05-07T21:45:17;19.63;;;8.15;;
46110;SDS011;31849;55.992;37.252;2023-05-07T21:50:21;14.13;;;7.43;;
46110;SDS011;31849;55.992;37.252;2023-05-07T21:55:25;22.45;;;8.82;;
46110;SDS011;31849;55.992;37.252;2023-05-07T22:00:30;13.27;;;6.88;;
46110;SDS011;31849;55.992;37.252;2023-05-07T22:05:33;15.82;;;7.05;;
46110;SDS011;31849;55.992;37.252;2023-05-07T22:10:37;20.17;;;7.63;;
46110;SDS011;31849;55.992;37.252;2023-05-07T22:15:42;17.30;;;7.97;;
46110;SDS011;31849;55.992;37.252;2023-05-07T22:20:58;15.13;;;8.25;;
46110;SDS011;31849;55.992;37.252;2023-05-07T22:26:08;15.30;;;7.78;;
46110;SDS011;31849;55.992;37.252;2023-05-07T22:31:13;15.80;;;7.88;;
46110;SDS011;31849;55.992;37.252;2023-05-07T22:41:20;15.73;;;7.60;;
46110;SDS011;31849;55.992;37.252;2023-05-07T22:46:25;15.63;;;7.60;;
46110;SDS011;31849;55.992;37.252;2023-05-07T22:51:29;14.68;;;7.38;;
46110;SDS011;31849;55.992;37.252;2023-05-07T22:56:33;15.45;;;7.25;;
46110;SDS011;31849;55.992;37.252;2023-05-07T23:01:38;17.30;;;7.53;;
46110;SDS011;31849;55.992;37.252;2023-05-07T23:06:41;17.00;;;7.15;;
46110;SDS011;31849;55.992;37.252;2023-05-07T23:11:45;22.40;;;7.22;;
46110;SDS011;31849;55.992;37.252;2023-05-07T23:16:50;28.10;;;7.55;;
46110;SDS011;31849;55.992;37.252;2023-05-07T23:21:54;13.55;;;7.22;;
46110;SDS011;31849;55.992;37.252;2023-05-07T23:26:57;19.55;;;7.80;;
46110;SDS011;31849;55.992;37.252;2023-05-07T23:32:02;15.63;;;7.53;;
46110;SDS011;31849;55.992;37.252;2023-05-07T23:37:07;19.38;;;7.38;;
46110;SDS011;31849;55.992;37.252;2023-05-07T23:42:10;16.70;;;7.43;;
46110;SDS011;31849;55.992;37.252;2023-05-07T23:47:15;15.45;;;7.90;;
46110;SDS011;31849;55.992;37.252;2023-05-07T23:52:19;15.25;;;8.10;;
46110;SDS011;31849;55.992;37.252;2023-05-07T23:57:23;17.92;;;7.45;;
